createdAt,value
2022-09-20T00:01:34.081Z,99841.75
2022-09-20T00:04:05.780Z,99848.16
2022-09-20T00:06:37.537Z,99844.38
2022-09-20T00:09:07.169Z,99848.16
2022-09-20T00:11:37.084Z,99845.81
2022-09-20T00:14:08.864Z,99849.25
2022-09-20T00:16:40.297Z,99848.28
2022-09-20T00:19:10.473Z,99849.41
2022-09-20T00:21:40.663Z,99842.34
2022-09-20T00:24:09.394Z,99848.44
2022-09-20T00:26:38.221Z,99854.69
2022-09-20T00:29:06.653Z,99856.34
2022-09-20T00:31:35.806Z,99854.53
2022-09-20T00:34:21.535Z,99855.53
2022-09-20T00:36:51.307Z,99859.16
2022-09-20T00:39:19.638Z,99854.00
2022-09-20T00:41:48.093Z,99858.47
2022-09-20T00:44:45.492Z,99862.44
2022-09-20T00:47:17.863Z,99860.81
2022-09-20T00:49:46.868Z,99868.41
2022-09-20T00:52:17.271Z,99855.81
2022-09-20T00:54:45.747Z,99866.63
2022-09-20T00:57:14.436Z,99856.34
2022-09-20T00:59:44.989Z,99861.63
2022-09-20T01:02:15.890Z,99854.69
2022-09-20T01:04:44.835Z,99852.06
2022-09-20T01:07:17.086Z,99853.47
2022-09-20T01:09:45.752Z,99853.06
2022-09-20T01:12:16.548Z,99851.25
2022-09-20T01:14:46.058Z,99852.22
2022-09-20T01:17:15.522Z,99856.97
2022-09-20T01:19:50.604Z,99857.78
2022-09-20T01:22:25.050Z,99861.97
2022-09-20T01:24:57.973Z,99862.25
2022-09-20T01:27:40.340Z,99854.59
2022-09-20T01:30:10.550Z,99861.69
2022-09-20T01:32:50.479Z,99858.38
2022-09-20T01:35:21.423Z,99860.84
2022-09-20T01:38:04.101Z,99867.81
2022-09-20T01:40:36.901Z,99859.34
2022-09-20T01:43:10.513Z,99864.19
2022-09-20T01:45:41.947Z,99871.41
2022-09-20T01:48:15.982Z,99870.88
2022-09-20T01:51:00.630Z,99881.28
2022-09-20T01:53:46.111Z,99871.41
2022-09-20T01:56:53.897Z,99872.81
2022-09-20T01:59:45.134Z,99872.66
2022-09-20T02:02:44.110Z,99879.06
2022-09-20T02:05:40.176Z,99875.19
2022-09-20T02:08:44.942Z,99878.91
2022-09-20T02:11:16.311Z,99883.09
2022-09-20T02:13:59.181Z,99876.97
2022-09-20T02:16:40.665Z,99885.31
2022-09-20T02:19:29.700Z,99879.75
2022-09-20T02:22:11.291Z,99881.72
2022-09-20T02:24:45.264Z,99883.91
2022-09-20T02:27:20.105Z,99873.91
2022-09-20T02:29:59.767Z,99879.75
2022-09-20T02:32:45.551Z,99888.63
2022-09-20T02:35:21.331Z,99880.03
2022-09-20T02:37:59.716Z,99879.91
2022-09-20T02:40:41.291Z,99879.22
2022-09-20T02:43:16.145Z,99886.69
2022-09-20T02:45:49.597Z,99889.50
2022-09-20T02:48:23.540Z,99880.59
2022-09-20T02:50:57.448Z,99883.38
2022-09-20T02:53:37.149Z,99890.47
2022-09-20T02:56:11.165Z,99888.38
2022-09-20T02:58:50.924Z,99891.97
2022-09-20T03:01:26.894Z,99892.81
2022-09-20T03:04:03.882Z,99894.75
2022-09-20T03:06:41.380Z,99905.31
2022-09-20T03:09:15.145Z,99893.38
2022-09-20T03:11:50.196Z,99892.25
2022-09-20T03:14:23.202Z,99893.78
2022-09-20T03:17:04.118Z,99902.41
2022-09-20T03:19:45.012Z,99894.59
2022-09-20T03:22:22.211Z,99901.13
2022-09-20T03:25:01.265Z,99901.97
2022-09-20T03:27:33.808Z,99899.22
2022-09-20T03:30:18.672Z,99897.25
2022-09-20T03:32:56.999Z,99906.16
2022-09-20T03:35:36.151Z,99898.78
2022-09-20T03:38:18.297Z,99901.03
2022-09-20T03:41:24.857Z,99904.91
2022-09-20T03:44:05.438Z,99905.59
2022-09-20T03:46:42.242Z,99909.22
2022-09-20T03:49:51.527Z,99910.31
2022-09-20T03:52:37.055Z,99905.88
2022-09-20T03:55:53.634Z,99910.59
2022-09-20T03:58:32.284Z,99911.69
2022-09-20T04:01:10.605Z,99910.88
2022-09-20T04:03:46.186Z,99917.94
2022-09-20T04:06:38.554Z,99911.41
2022-09-20T04:09:27.354Z,99913.94
2022-09-20T04:12:02.853Z,99918.34
2022-09-20T04:14:36.324Z,99911.56
2022-09-20T04:17:20.494Z,99923.63
2022-09-20T04:19:53.378Z,99927.41
2022-09-20T04:22:23.271Z,99926.00
2022-09-20T04:24:59.383Z,99930.72
2022-09-20T04:27:30.680Z,99926.69
2022-09-20T04:30:04.305Z,99942.53
2022-09-20T04:32:37.601Z,99941.41
2022-09-20T04:35:32.696Z,99941.81
2022-09-20T04:38:06.231Z,99950.28
2022-09-20T04:40:49.392Z,99950.56
2022-09-20T04:43:39.029Z,99952.34
2022-09-20T04:46:35.782Z,99956.09
2022-09-20T04:49:49.099Z,99960.25
2022-09-20T04:53:12.173Z,99959.44
2022-09-20T04:56:02.072Z,99952.34
2022-09-20T04:58:37.424Z,99959.28
2022-09-20T05:01:58.528Z,99968.03
2022-09-20T05:05:20.353Z,99973.59
2022-09-20T05:08:43.667Z,99976.66
2022-09-20T05:11:32.422Z,99989.69
2022-09-20T05:14:19.676Z,99990.94
2022-09-20T05:17:02.118Z,99999.41
2022-09-20T05:19:34.501Z,99988.84
2022-09-20T05:22:30.063Z,100002.47
2022-09-20T05:25:22.118Z,99999.56
2022-09-20T05:27:57.054Z,100003.28
2022-09-20T05:30:33.775Z,100006.06
2022-09-20T05:33:15.637Z,100011.22
2022-09-20T05:35:50.387Z,100006.66
2022-09-20T05:38:24.208Z,100008.88
2022-09-20T05:41:07.017Z,100019.00
2022-09-20T05:43:40.778Z,100019.69
2022-09-20T05:46:18.155Z,100014.56
2022-09-20T05:48:57.558Z,100017.06
2022-09-20T05:51:37.491Z,100019.56
2022-09-20T05:54:31.824Z,100021.63
2022-09-20T05:57:11.771Z,100012.19
2022-09-20T05:59:49.631Z,100014.56
2022-09-20T06:02:26.698Z,100018.44
2022-09-20T06:05:01.768Z,100019.84
2022-09-20T06:07:40.047Z,100034.69
2022-09-20T06:10:34.711Z,100028.72
2022-09-20T06:13:09.344Z,100035.22
2022-09-20T06:15:46.647Z,100033.03
2022-09-20T06:18:24.427Z,100044.41
2022-09-20T06:21:01.566Z,100044.81
2022-09-20T06:23:32.289Z,100044.13
2022-09-20T06:26:06.664Z,100044.41
2022-09-20T06:28:37.153Z,100043.97
2022-09-20T06:31:11.566Z,100045.78
2022-09-20T06:33:45.086Z,100042.75
2022-09-20T06:36:34.621Z,100047.84
2022-09-20T06:39:25.395Z,100049.28
2022-09-20T06:41:54.754Z,100048.59
2022-09-20T06:44:23.969Z,100041.34
2022-09-20T06:46:54.552Z,100049.53
2022-09-20T06:49:24.250Z,100054.97
2022-09-20T06:51:52.988Z,100049.94
2022-09-20T06:54:23.245Z,100055.44
2022-09-20T06:56:52.449Z,100062.78
2022-09-20T06:59:22.801Z,100057.38
2022-09-20T07:01:53.746Z,100064.44
2022-09-20T07:04:26.714Z,100067.09
2022-09-20T07:07:02.653Z,100076.47
2022-09-20T07:09:33.752Z,100068.06
2022-09-20T07:12:02.514Z,100068.66
2022-09-20T07:14:31.229Z,100075.59
2022-09-20T07:16:59.930Z,100072.06
2022-09-20T07:19:29.717Z,100076.25
2022-09-20T07:21:58.712Z,100085.16
2022-09-20T07:24:27.457Z,100077.53
2022-09-20T07:26:56.983Z,100083.72
2022-09-20T07:29:26.019Z,100093.81
2022-09-20T07:31:54.444Z,100089.06
2022-09-20T07:34:23.218Z,100100.31
2022-09-20T07:36:53.336Z,100107.81
2022-09-20T07:39:22.027Z,100106.91
2022-09-20T07:41:51.289Z,100109.25
2022-09-20T07:44:24.985Z,100110.63
2022-09-20T07:46:55.027Z,100115.53
2022-09-20T07:49:24.284Z,100111.28
2022-09-20T07:51:55.419Z,100118.41
2022-09-20T07:54:24.242Z,100125.75
2022-09-20T07:56:52.844Z,100126.81
2022-09-20T07:59:22.765Z,100125.09
2022-09-20T08:01:50.751Z,100126.09
2022-09-20T08:04:20.506Z,100118.06
2022-09-20T08:06:48.731Z,100125.03
2022-09-20T08:09:19.363Z,100121.94
2022-09-20T08:11:47.911Z,100120.91
2022-09-20T08:14:17.258Z,100134.13
2022-09-20T08:16:47.278Z,100128.16
2022-09-20T08:19:17.306Z,100122.59
2022-09-20T08:21:45.720Z,100129.50
2022-09-20T08:24:16.156Z,100130.97
2022-09-20T08:26:46.112Z,100133.94
2022-09-20T08:29:15.309Z,100128.59
2022-09-20T08:31:43.694Z,100139.34
2022-09-20T08:34:14.019Z,100137.88
2022-09-20T08:36:45.485Z,100144.28
2022-09-20T08:42:13.064Z,100129.38
2022-09-20T08:44:47.831Z,100135.78
2022-09-20T08:47:19.249Z,100127.75
2022-09-20T08:49:47.329Z,100123.38
2022-09-20T08:52:19.641Z,100129.59
2022-09-20T08:54:48.224Z,100134.03
2022-09-20T08:57:19.771Z,100130.66
2022-09-20T08:59:48.401Z,100130.81
2022-09-20T09:02:18.397Z,100136.13
2022-09-20T09:04:47.405Z,100134.94
2022-09-20T09:07:19.776Z,100146.38
2022-09-20T09:09:48.449Z,100145.38
2022-09-20T09:12:23.377Z,100148.47
2022-09-20T09:14:55.224Z,100151.56
2022-09-20T09:17:28.391Z,100149.72
2022-09-20T09:19:57.395Z,100152.44
2022-09-20T09:22:32.260Z,100149.25
2022-09-20T09:25:24.784Z,100161.91
2022-09-20T09:27:57.659Z,100161.06
2022-09-20T09:30:28.389Z,100164.00
2022-09-20T09:33:23.861Z,100152.22
2022-09-20T09:36:00.286Z,100152.59
2022-09-20T09:38:31.329Z,100144.97
2022-09-20T09:41:01.635Z,100152.22
2022-09-20T09:43:33.589Z,100152.94
2022-09-20T09:46:17.831Z,100145.19
2022-09-20T09:48:50.094Z,100142.34
2022-09-20T09:51:20.679Z,100147.66
2022-09-20T09:53:50.208Z,100146.47
2022-09-20T09:56:38.907Z,100150.81
2022-09-20T09:59:28.423Z,100155.63
2022-09-20T10:02:04.439Z,100152.50
2022-09-20T10:04:36.260Z,100157.97
2022-09-20T10:07:10.349Z,100154.97
2022-09-20T10:09:54.076Z,100161.56
2022-09-20T10:12:34.843Z,100157.38
2022-09-20T10:15:14.437Z,100159.75
2022-09-20T10:17:52.412Z,100154.16
2022-09-20T10:20:31.271Z,100146.16
2022-09-20T10:23:39.465Z,100152.72
2022-09-20T10:25:58.332Z,100156.75
2022-09-20T10:28:48.405Z,100159.91
2022-09-20T10:31:31.995Z,100154.88
2022-09-20T10:34:28.955Z,100164.09
2022-09-20T10:36:59.455Z,100162.75
2022-09-20T10:39:32.922Z,100157.97
2022-09-20T10:42:26.880Z,100153.59
2022-09-20T10:45:05.683Z,100153.44
2022-09-20T10:47:40.650Z,100153.81
2022-09-20T10:50:21.196Z,100139.69
2022-09-20T10:53:02.826Z,100159.09
2022-09-20T10:55:40.369Z,100149.13
2022-09-20T10:58:30.626Z,100154.72
2022-09-20T11:01:02.607Z,100161.63
2022-09-20T11:03:44.645Z,100152.75
2022-09-20T11:06:17.586Z,100160.41
2022-09-20T11:08:50.805Z,100158.94
2022-09-20T11:11:22.087Z,100159.56
2022-09-20T11:13:57.918Z,100147.28
2022-09-20T11:16:29.522Z,100146.25
2022-09-20T11:19:04.004Z,100141.72
2022-09-20T11:21:38.485Z,100142.69
2022-09-20T11:24:15.174Z,100141.19
2022-09-20T11:26:46.244Z,100142.63
2022-09-20T11:29:26.195Z,100132.78
2022-09-20T11:31:58.677Z,100138.16
2022-09-20T11:34:31.287Z,100143.25
2022-09-20T11:37:02.697Z,100139.78
2022-09-20T11:39:36.603Z,100145.84
2022-09-20T11:42:05.875Z,100146.59
2022-09-20T11:44:34.430Z,100149.16
2022-09-20T11:47:06.320Z,100154.75
2022-09-20T11:49:43.510Z,100131.13
2022-09-20T11:52:28.710Z,100126.34
2022-09-20T11:55:18.639Z,100142.31
2022-09-20T11:57:47.254Z,100139.94
2022-09-20T12:00:17.782Z,100139.69
2022-09-20T12:02:49.172Z,100140.72
2022-09-20T12:05:34.010Z,100143.38
2022-09-20T12:08:03.390Z,100134.25
2022-09-20T12:10:35.270Z,100132.91
2022-09-20T12:13:05.682Z,100129.38
2022-09-20T12:15:35.470Z,100138.22
2022-09-20T12:18:16.645Z,100130.78
2022-09-20T12:21:15.296Z,100121.41
2022-09-20T12:23:49.175Z,100122.34
2022-09-20T12:26:45.367Z,100128.22
2022-09-20T12:29:55.592Z,100124.34
2022-09-20T12:32:56.439Z,100133.13
2022-09-20T12:36:15.731Z,100125.66
2022-09-20T12:38:58.333Z,100112.66
2022-09-20T12:41:28.966Z,100122.28
2022-09-20T12:44:03.907Z,100116.66
2022-09-20T12:46:39.294Z,100113.00
2022-09-20T12:49:50.654Z,100120.00
2022-09-20T12:52:42.489Z,100120.06
2022-09-20T12:55:14.406Z,100122.31
2022-09-20T12:57:43.828Z,100121.31
2022-09-20T13:00:34.551Z,100122.47
2022-09-20T13:03:12.195Z,100121.09
2022-09-20T13:05:42.124Z,100123.34
2022-09-20T13:08:17.913Z,100131.41
2022-09-20T13:10:51.115Z,100126.38
2022-09-20T13:13:37.063Z,100119.94
2022-09-20T13:16:07.987Z,100128.31
2022-09-20T13:18:36.255Z,100126.22
2022-09-20T13:21:07.202Z,100128.44
2022-09-20T13:23:45.112Z,100125.59
2022-09-20T13:26:16.297Z,100135.59
2022-09-20T13:28:49.045Z,100128.84
2022-09-20T13:31:24.261Z,100138.13
2022-09-20T13:33:52.808Z,100132.72
2022-09-20T13:36:27.318Z,100139.66
2022-09-20T13:38:57.517Z,100139.03
2022-09-20T13:41:29.338Z,100134.88
2022-09-20T13:43:57.473Z,100142.56
2022-09-20T13:46:30.149Z,100141.09
2022-09-20T13:49:08.663Z,100139.44
2022-09-20T13:51:36.990Z,100136.38
2022-09-20T13:54:25.647Z,100143.28
2022-09-20T13:56:56.745Z,100134.44
2022-09-20T13:59:26.049Z,100145.34
2022-09-20T14:01:55.520Z,100134.81
2022-09-20T14:04:25.934Z,100152.28
2022-09-20T14:06:54.690Z,100149.06
2022-09-20T14:09:28.563Z,100156.06
2022-09-20T14:11:59.054Z,100151.00
2022-09-20T14:14:28.200Z,100143.75
2022-09-20T14:16:58.102Z,100138.13
2022-09-20T14:19:31.980Z,100140.75
2022-09-20T14:22:00.842Z,100139.09
2022-09-20T14:24:31.940Z,100135.31
2022-09-20T14:27:22.403Z,100142.13
2022-09-20T14:29:51.026Z,100147.09
2022-09-20T14:32:43.218Z,100147.28
2022-09-20T14:35:17.976Z,100147.69
2022-09-20T14:37:48.346Z,100151.66
2022-09-20T14:40:26.599Z,100161.72
2022-09-20T14:43:00.497Z,100163.34
2022-09-20T14:45:31.920Z,100161.16
2022-09-20T14:48:10.085Z,100167.09
2022-09-20T14:50:40.942Z,100162.22
2022-09-20T14:53:26.675Z,100156.34
2022-09-20T14:56:00.592Z,100154.91
2022-09-20T14:58:31.215Z,100163.00
2022-09-20T15:01:03.621Z,100164.19
2022-09-20T15:03:34.031Z,100163.88
2022-09-20T15:06:02.118Z,100168.22
2022-09-20T15:08:30.287Z,100169.88
2022-09-20T15:11:00.432Z,100170.06
2022-09-20T15:13:30.186Z,100179.19
2022-09-20T15:15:59.615Z,100180.53
2022-09-20T15:18:29.483Z,100189.66
2022-09-20T15:20:57.857Z,100196.81
2022-09-20T15:23:26.076Z,100196.97
2022-09-20T15:25:55.458Z,100201.47
2022-09-20T15:28:24.117Z,100205.66
2022-09-20T15:30:53.846Z,100206.97
2022-09-20T15:33:23.040Z,100203.47
2022-09-20T15:35:51.556Z,100203.94
2022-09-20T15:38:20.558Z,100210.81
2022-09-20T15:40:50.489Z,100207.69
2022-09-20T15:43:22.190Z,100200.88
2022-09-20T15:45:51.864Z,100200.03
2022-09-20T15:48:23.359Z,100203.69
2022-09-20T15:51:03.042Z,100212.00
2022-09-20T15:53:33.749Z,100215.69
2022-09-20T15:56:03.181Z,100228.50
2022-09-20T15:58:35.976Z,100228.69
2022-09-20T16:01:07.145Z,100230.41
2022-09-20T16:03:37.681Z,100225.59
2022-09-20T16:06:06.830Z,100233.06
2022-09-20T16:08:36.214Z,100241.03
2022-09-20T16:11:05.820Z,100243.34
2022-09-20T16:13:36.589Z,100245.03
2022-09-20T16:16:06.275Z,100248.66
2022-09-20T16:18:54.021Z,100240.00
2022-09-20T16:21:23.277Z,100235.84
2022-09-20T16:23:53.286Z,100242.97
2022-09-20T16:26:22.642Z,100245.63
2022-09-20T16:28:50.935Z,100249.09
2022-09-20T16:31:37.087Z,100244.91
2022-09-20T16:34:09.482Z,100248.75
2022-09-20T16:36:38.795Z,100250.88
2022-09-20T16:39:07.707Z,100254.03
2022-09-20T16:41:36.674Z,100264.47
2022-09-20T16:44:05.564Z,100255.47
2022-09-20T16:46:37.584Z,100254.13
2022-09-20T16:49:09.741Z,100247.53
2022-09-20T16:51:39.656Z,100257.13
2022-09-20T16:54:12.255Z,100263.97
2022-09-20T16:56:42.743Z,100263.78
2022-09-20T16:59:12.607Z,100272.44
2022-09-20T17:01:43.013Z,100272.44
2022-09-20T17:04:15.761Z,100274.41
2022-09-20T17:06:46.094Z,100273.59
2022-09-20T17:09:15.344Z,100281.00
2022-09-20T17:11:46.649Z,100282.16
2022-09-20T17:14:17.906Z,100284.16
2022-09-20T17:16:48.951Z,100284.91
2022-09-20T17:19:21.449Z,100298.34
2022-09-20T17:21:51.558Z,100297.66
2022-09-20T17:24:22.278Z,100299.81
2022-09-20T17:26:53.600Z,100308.75
2022-09-20T17:29:24.283Z,100312.09
2022-09-20T17:31:56.679Z,100306.78
2022-09-20T17:34:29.612Z,100311.56
2022-09-20T17:36:59.288Z,100318.16
2022-09-20T17:39:28.005Z,100313.31
2022-09-20T17:41:56.735Z,100310.00
2022-09-20T17:44:25.527Z,100318.09
2022-09-20T17:46:54.250Z,100313.94
2022-09-20T17:49:24.133Z,100322.88
2022-09-20T17:51:55.927Z,100328.34
2022-09-20T17:54:25.132Z,100321.81
2022-09-20T17:56:56.130Z,100332.44
2022-09-20T17:59:25.037Z,100329.09
2022-09-20T18:01:54.508Z,100333.72
2022-09-20T18:04:24.656Z,100334.34
2022-09-20T18:06:55.844Z,100336.44
2022-09-20T18:09:26.077Z,100345.69
2022-09-20T18:11:56.136Z,100344.31
2022-09-20T18:14:25.903Z,100344.63
2022-09-20T18:16:55.157Z,100348.81
2022-09-20T18:19:23.874Z,100352.06
2022-09-20T18:21:52.590Z,100345.09
2022-09-20T18:24:22.685Z,100352.53
2022-09-20T18:26:51.571Z,100355.09
2022-09-20T18:29:20.417Z,100358.31
2022-09-20T18:31:50.081Z,100353.75
2022-09-20T18:34:19.982Z,100357.13
2022-09-20T18:36:53.189Z,100359.69
2022-09-20T18:39:24.272Z,100365.56
2022-09-20T18:41:53.519Z,100368.13
2022-09-20T18:44:25.654Z,100372.31
2022-09-20T18:46:55.153Z,100378.19
2022-09-20T18:49:25.576Z,100372.66
2022-09-20T18:51:54.308Z,100381.00
2022-09-20T18:54:24.666Z,100381.47
2022-09-20T18:56:54.020Z,100379.94
2022-09-20T18:59:24.271Z,100389.16
2022-09-20T19:02:17.225Z,100381.06
2022-09-20T19:05:15.463Z,100382.88
2022-09-20T19:07:58.561Z,100389.69
2022-09-20T19:10:47.276Z,100386.91
2022-09-20T19:13:28.155Z,100393.88
2022-09-20T19:16:17.172Z,100395.84
2022-09-20T19:19:09.086Z,100405.84
2022-09-20T19:21:42.846Z,100407.69
2022-09-20T19:24:23.826Z,100404.34
2022-09-20T19:26:54.288Z,100410.47
2022-09-20T19:29:24.928Z,100406.53
2022-09-20T19:31:55.658Z,100409.19
2022-09-20T19:34:26.251Z,100406.13
2022-09-20T19:37:02.205Z,100412.78
2022-09-20T19:39:39.229Z,100414.16
2022-09-20T19:42:16.582Z,100415.84
2022-09-20T19:44:52.651Z,100407.22
2022-09-20T19:47:30.575Z,100415.31
2022-09-20T19:50:05.040Z,100410.28
2022-09-20T19:52:34.158Z,100414.78
2022-09-20T19:55:03.393Z,100415.59
2022-09-20T19:57:38.693Z,100414.47
2022-09-20T20:00:09.620Z,100414.47
2022-09-20T20:02:38.948Z,100417.81
2022-09-20T20:05:08.917Z,100421.44
2022-09-20T20:07:42.614Z,100413.78
2022-09-20T20:10:18.549Z,100420.34
2022-09-20T20:12:54.457Z,100415.06
2022-09-20T20:15:37.469Z,100412.81
2022-09-20T20:18:12.252Z,100423.16
2022-09-20T20:20:46.590Z,100421.34
2022-09-20T20:23:41.370Z,100425.53
2022-09-20T20:26:10.785Z,100429.31
2022-09-20T20:28:40.749Z,100429.88
2022-09-20T20:31:12.570Z,100433.78
2022-09-20T20:33:41.696Z,100438.78
2022-09-20T20:36:11.989Z,100440.16
2022-09-20T20:38:41.834Z,100439.78
2022-09-20T20:41:11.867Z,100441.72
2022-09-20T20:43:43.141Z,100443.50
2022-09-20T20:46:14.510Z,100442.97
2022-09-20T20:48:43.734Z,100439.03
2022-09-20T20:51:13.756Z,100447.13
2022-09-20T20:53:47.213Z,100447.13
2022-09-20T20:56:17.465Z,100446.84
2022-09-20T20:58:48.318Z,100441.25
2022-09-20T21:01:18.423Z,100447.94
2022-09-20T21:03:49.104Z,100445.19
2022-09-20T21:06:18.139Z,100451.03
2022-09-20T21:08:49.594Z,100442.38
2022-09-20T21:11:23.571Z,100451.03
2022-09-20T21:13:53.825Z,100454.63
2022-09-20T21:16:24.349Z,100449.78
2022-09-20T21:18:53.200Z,100456.47
2022-09-20T21:21:24.165Z,100451.72
2022-09-20T21:23:54.714Z,100454.09
2022-09-20T21:26:24.097Z,100453.13
2022-09-20T21:28:55.153Z,100448.25
2022-09-20T21:31:24.415Z,100453.81
2022-09-20T21:33:53.156Z,100449.06
2022-09-20T21:36:23.287Z,100454.38
2022-09-20T21:38:52.098Z,100452.84
2022-09-20T21:41:22.531Z,100455.22
2022-09-20T21:43:55.423Z,100452.97
2022-09-20T21:46:25.876Z,100451.72
2022-09-20T21:48:54.397Z,100461.31
2022-09-20T21:51:23.468Z,100460.19
2022-09-20T21:53:56.596Z,100459.78
2022-09-20T21:56:27.533Z,100462.41
2022-09-20T21:58:57.433Z,100459.31
2022-09-20T22:01:27.362Z,100465.16
2022-09-20T22:03:59.259Z,100464.00
2022-09-20T22:06:29.828Z,100467.06
2022-09-20T22:09:01.312Z,100472.06
2022-09-20T22:11:31.464Z,100475.91
2022-09-20T22:14:01.856Z,100472.13
2022-09-20T22:16:31.679Z,100470.00
2022-09-20T22:19:01.721Z,100478.44
2022-09-20T22:21:31.659Z,100476.06
2022-09-20T22:24:01.767Z,100476.22
2022-09-20T22:26:32.460Z,100479.69
2022-09-20T22:29:03.037Z,100484.13
2022-09-20T22:31:31.760Z,100479.94
2022-09-20T22:34:02.548Z,100487.16
2022-09-20T22:36:32.765Z,100482.47
2022-09-20T22:39:01.275Z,100479.56
2022-09-20T22:41:30.988Z,100479.41
2022-09-20T22:43:59.666Z,100472.91
2022-09-20T22:46:31.047Z,100476.13
2022-09-20T22:48:59.714Z,100482.25
2022-09-20T22:51:30.915Z,100481.72
2022-09-20T22:53:59.601Z,100476.28
2022-09-20T22:56:30.031Z,100479.50
2022-09-20T22:59:00.284Z,100479.38
2022-09-20T23:01:32.096Z,100480.06
2022-09-20T23:04:03.315Z,100478.41
2022-09-20T23:06:33.581Z,100469.91
2022-09-20T23:09:03.582Z,100478.53
2022-09-20T23:11:32.514Z,100469.22
2022-09-20T23:14:03.446Z,100476.16
2022-09-20T23:16:34.629Z,100473.78
2022-09-20T23:19:04.768Z,100475.72
2022-09-20T23:21:34.156Z,100470.44
2022-09-20T23:24:04.095Z,100472.22
2022-09-20T23:26:33.977Z,100475.88
2022-09-20T23:29:03.891Z,100478.09
2022-09-20T23:31:34.980Z,100476.44
2022-09-20T23:34:05.470Z,100477.25
2022-09-20T23:36:35.953Z,100483.50
2022-09-20T23:39:04.834Z,100477.25
2022-09-20T23:41:33.659Z,100485.06
2022-09-20T23:44:03.052Z,100481.97
2022-09-20T23:46:31.551Z,100491.44
2022-09-20T23:49:01.610Z,100482.69
2022-09-20T23:51:30.826Z,100487.56
2022-09-20T23:53:59.525Z,100483.81
2022-09-20T23:56:28.918Z,100481.91
2022-09-20T23:58:57.663Z,100482.16
